createdAt,value
2023-03-21T00:04:24.733Z,18.17
2023-03-21T00:09:27.065Z,14.73
2023-03-21T00:14:31.020Z,15.60
2023-03-21T00:19:32.719Z,14.45
2023-03-21T00:24:35.302Z,15.48
2023-03-21T00:29:36.793Z,14.98
2023-03-21T00:34:43.322Z,14.32
2023-03-21T00:39:56.137Z,14.63
2023-03-21T00:44:57.790Z,12.32
2023-03-21T00:49:59.304Z,12.82
2023-03-21T00:55:01.507Z,15.25
2023-03-21T01:00:04.332Z,15.90
2023-03-21T01:05:06.368Z,16.45
2023-03-21T01:10:08.188Z,13.45
2023-03-21T01:15:09.931Z,15.27
2023-03-21T01:20:12.168Z,15.48
2023-03-21T01:25:22.228Z,18.85
2023-03-21T01:30:25.003Z,19.25
2023-03-21T01:35:30.062Z,19.42
2023-03-21T01:40:33.623Z,19.83
2023-03-21T01:46:12.371Z,18.23
2023-03-21T01:51:13.888Z,20.83
2023-03-21T01:56:23.618Z,22.85
2023-03-21T02:01:25.156Z,30.52
2023-03-21T02:06:44.216Z,41.60
2023-03-21T02:11:47.192Z,40.72
2023-03-21T02:16:56.272Z,44.08
2023-03-21T02:22:16.403Z,50.47
2023-03-21T02:27:23.827Z,44.25
2023-03-21T02:32:58.642Z,40.33
2023-03-21T02:38:15.430Z,35.90
2023-03-21T02:43:31.435Z,33.38
2023-03-21T02:48:50.296Z,36.55
2023-03-21T02:54:23.789Z,33.60
2023-03-21T02:59:23.542Z,30.75
2023-03-21T03:04:27.909Z,38.75
2023-03-21T03:09:49.497Z,32.50
2023-03-21T03:15:13.673Z,34.38
2023-03-21T03:20:21.092Z,37.28
2023-03-21T03:25:41.634Z,35.40
2023-03-21T03:30:57.497Z,36.78
2023-03-21T03:36:21.593Z,37.13
2023-03-21T03:41:50.286Z,38.85
2023-03-21T03:46:59.693Z,35.25
2023-03-21T03:52:06.908Z,32.00
2023-03-21T03:57:09.766Z,28.45
2023-03-21T04:02:11.559Z,27.42
2023-03-21T04:07:13.615Z,28.70
2023-03-21T04:12:15.342Z,31.15
2023-03-21T04:17:17.520Z,32.17
2023-03-21T04:22:19.064Z,35.35
2023-03-21T04:27:20.861Z,36.83
2023-03-21T04:32:24.698Z,40.90
2023-03-21T04:37:27.868Z,46.60
2023-03-21T04:42:29.357Z,43.78
2023-03-21T04:47:31.235Z,48.22
2023-03-21T04:52:32.769Z,49.97
2023-03-21T04:57:34.296Z,46.67
2023-03-21T05:02:35.844Z,49.42
2023-03-21T05:07:38.960Z,47.53
2023-03-21T05:12:40.587Z,42.65
2023-03-21T05:17:42.674Z,47.78
2023-03-21T05:22:46.269Z,47.65
2023-03-21T05:27:53.973Z,49.40
2023-03-21T05:37:57.068Z,52.97
2023-03-21T05:42:58.580Z,48.33
2023-03-21T05:48:00.266Z,47.97
2023-03-21T05:53:01.859Z,46.13
2023-03-21T05:58:03.713Z,43.47
2023-03-21T06:03:05.293Z,42.10
2023-03-21T06:08:06.910Z,40.20
2023-03-21T06:13:08.715Z,43.97
2023-03-21T06:18:10.482Z,35.88
2023-03-21T06:23:12.107Z,37.70
2023-03-21T06:28:13.647Z,44.28
2023-03-21T06:33:15.399Z,41.28
2023-03-21T06:38:16.909Z,44.60
2023-03-21T06:43:18.391Z,44.42
2023-03-21T06:48:19.994Z,46.53
2023-03-21T06:53:25.009Z,54.15
2023-03-21T06:58:27.105Z,59.88
2023-03-21T07:03:29.176Z,65.63
2023-03-21T07:08:30.693Z,57.78
2023-03-21T07:13:32.602Z,48.25
2023-03-21T07:18:34.158Z,45.35
2023-03-21T07:23:36.015Z,46.72
2023-03-21T07:28:37.538Z,44.75
2023-03-21T07:33:39.064Z,41.72
2023-03-21T07:38:41.240Z,47.88
2023-03-21T07:43:42.805Z,45.78
2023-03-21T07:48:44.360Z,45.65
2023-03-21T07:53:48.578Z,43.50
2023-03-21T07:58:50.223Z,45.33
2023-03-21T08:03:53.801Z,44.58
2023-03-21T08:08:55.441Z,47.92
2023-03-21T08:13:58.153Z,47.10
2023-03-21T08:18:59.692Z,39.50
2023-03-21T08:24:01.387Z,41.90
2023-03-21T08:29:02.935Z,41.92
2023-03-21T08:34:04.470Z,41.20
2023-03-21T08:39:06.470Z,37.10
2023-03-21T08:44:08.040Z,37.78
2023-03-21T08:49:09.580Z,41.00
2023-03-21T08:54:21.797Z,35.90
2023-03-21T08:59:23.786Z,34.78
2023-03-21T09:04:28.001Z,34.40
2023-03-21T09:09:29.612Z,32.08
2023-03-21T09:14:31.195Z,29.50
2023-03-21T09:19:33.137Z,27.55
2023-03-21T09:24:34.637Z,30.25
2023-03-21T09:29:36.158Z,33.72
2023-03-21T09:34:41.009Z,33.22
2023-03-21T09:39:44.828Z,33.78
2023-03-21T09:45:10.027Z,29.73
2023-03-21T09:50:20.003Z,32.75
2023-03-21T09:55:35.095Z,35.08
2023-03-21T10:00:40.524Z,29.25
2023-03-21T10:05:45.903Z,27.02
2023-03-21T10:10:50.501Z,31.25
2023-03-21T10:15:57.578Z,28.33
2023-03-21T10:21:06.257Z,28.15
2023-03-21T10:26:08.178Z,28.60
2023-03-21T10:31:15.034Z,22.45
2023-03-21T10:36:22.751Z,25.30
2023-03-21T10:41:24.568Z,22.77
2023-03-21T10:46:27.362Z,19.33
2023-03-21T10:51:33.570Z,19.75
2023-03-21T10:56:38.445Z,19.17
2023-03-21T11:01:42.986Z,25.63
2023-03-21T11:06:54.877Z,19.40
2023-03-21T11:12:12.170Z,19.20
2023-03-21T11:17:16.702Z,20.73
2023-03-21T11:22:23.302Z,16.73
2023-03-21T11:27:29.344Z,20.10
2023-03-21T11:32:38.261Z,22.30
2023-03-21T11:37:47.036Z,22.65
2023-03-21T11:42:56.757Z,20.88
2023-03-21T11:48:00.309Z,26.50
2023-03-21T11:53:26.575Z,22.83
2023-03-21T11:58:49.672Z,22.48
2023-03-21T12:04:18.858Z,21.63
2023-03-21T12:09:20.336Z,25.50
2023-03-21T12:14:36.143Z,28.52
2023-03-21T12:19:44.320Z,21.75
2023-03-21T12:24:45.758Z,29.88
2023-03-21T12:30:00.929Z,26.23
2023-03-21T12:35:24.853Z,26.98
2023-03-21T12:40:53.538Z,21.15
2023-03-21T12:46:03.293Z,21.55
2023-03-21T12:51:11.386Z,21.75
2023-03-21T12:56:21.139Z,19.63
2023-03-21T13:01:24.391Z,16.48
2023-03-21T13:06:28.161Z,21.13
2023-03-21T13:11:31.204Z,21.15
2023-03-21T13:16:36.592Z,22.65
2023-03-21T13:22:00.173Z,18.48
2023-03-21T13:27:08.521Z,17.70
2023-03-21T13:32:33.047Z,17.67
2023-03-21T13:37:38.909Z,15.90
2023-03-21T13:42:50.158Z,14.77
2023-03-21T13:47:55.165Z,17.88
2023-03-21T13:53:21.492Z,14.93
2023-03-21T13:58:24.207Z,15.23
2023-03-21T14:03:30.764Z,20.70
2023-03-21T14:08:37.759Z,11.95
2023-03-21T14:13:50.965Z,14.80
2023-03-21T14:18:56.520Z,19.42
2023-03-21T14:24:06.389Z,18.35
2023-03-21T14:29:24.709Z,15.40
2023-03-21T14:34:29.499Z,13.45
2023-03-21T14:39:32.918Z,22.33
2023-03-21T14:44:53.928Z,17.52
2023-03-21T14:49:58.040Z,19.83
2023-03-21T14:55:01.946Z,18.00
2023-03-21T15:00:12.744Z,15.32
2023-03-21T15:05:39.594Z,16.63
2023-03-21T15:10:41.678Z,16.80
2023-03-21T15:15:44.078Z,20.48
2023-03-21T15:20:47.854Z,19.20
2023-03-21T15:25:50.846Z,20.33
2023-03-21T15:30:53.313Z,19.50
2023-03-21T15:35:58.380Z,20.15
2023-03-21T15:41:27.734Z,20.88
2023-03-21T15:46:49.642Z,19.65
2023-03-21T15:51:57.244Z,14.43
2023-03-21T16:02:17.014Z,9.80
2023-03-21T16:07:18.701Z,12.52
2023-03-21T16:12:20.335Z,7.32
2023-03-21T16:17:37.316Z,12.57
2023-03-21T16:22:38.796Z,13.43
2023-03-21T16:27:40.347Z,9.63
2023-03-21T16:32:42.255Z,8.93
2023-03-21T16:37:44.216Z,5.95
2023-03-21T16:42:45.812Z,8.70
2023-03-21T16:47:47.904Z,9.18
2023-03-21T16:52:49.510Z,6.28
2023-03-21T16:57:52.505Z,9.45
2023-03-21T17:02:56.149Z,9.50
2023-03-21T17:07:57.806Z,9.65
2023-03-21T17:12:59.374Z,10.77
2023-03-21T17:18:01.145Z,9.07
2023-03-21T17:23:02.762Z,11.30
2023-03-21T17:28:04.348Z,11.40
2023-03-21T17:33:05.951Z,9.30
2023-03-21T17:38:15.576Z,7.55
2023-03-21T17:43:19.542Z,12.82
2023-03-21T17:48:21.871Z,12.18
2023-03-21T17:53:23.519Z,9.35
2023-03-21T17:58:26.230Z,10.98
2023-03-21T18:03:27.794Z,10.73
2023-03-21T18:08:29.738Z,9.68
2023-03-21T18:13:31.341Z,10.02
2023-03-21T18:18:33.999Z,9.40
2023-03-21T18:23:35.973Z,11.02
2023-03-21T18:28:40.026Z,14.40
2023-03-21T18:33:44.969Z,9.38
2023-03-21T18:38:47.185Z,7.65
2023-03-21T18:44:15.606Z,9.65
2023-03-21T18:49:52.108Z,10.80
2023-03-21T18:54:38.423Z,8.45
2023-03-21T18:59:39.983Z,18.90
2023-03-21T19:04:41.630Z,18.00
2023-03-21T19:10:05.193Z,11.45
2023-03-21T19:15:06.020Z,19.92
2023-03-21T19:20:08.235Z,30.73
2023-03-21T19:25:11.080Z,20.42
2023-03-21T19:30:15.708Z,12.60
2023-03-21T19:35:17.554Z,10.65
2023-03-21T19:40:19.911Z,12.45
2023-03-21T19:45:21.523Z,13.43
2023-03-21T19:50:49.363Z,14.80
2023-03-21T19:55:51.928Z,11.38
2023-03-21T20:00:53.851Z,17.77
2023-03-21T20:06:07.410Z,23.60
2023-03-21T20:11:08.995Z,14.90
2023-03-21T20:16:11.189Z,12.52
2023-03-21T20:21:17.694Z,12.73
2023-03-21T20:26:20.268Z,13.77
2023-03-21T20:31:22.917Z,17.15
2023-03-21T20:36:38.662Z,15.77
2023-03-21T20:41:41.435Z,9.68
2023-03-21T20:46:44.055Z,15.00
2023-03-21T20:52:45.801Z,20.13
2023-03-21T20:57:07.155Z,16.63
2023-03-21T21:02:10.220Z,19.90
2023-03-21T21:07:17.134Z,21.02
2023-03-21T21:12:19.379Z,25.20
2023-03-21T21:17:37.174Z,21.75
2023-03-21T21:22:58.084Z,16.88
2023-03-21T21:28:03.663Z,21.20
2023-03-21T21:33:05.493Z,16.40
2023-03-21T21:38:07.061Z,22.20
2023-03-21T21:43:08.737Z,22.38
2023-03-21T21:48:11.553Z,20.02
2023-03-21T21:53:13.950Z,15.65
2023-03-21T21:58:21.992Z,16.88
2023-03-21T22:03:23.603Z,16.92
2023-03-21T22:08:25.406Z,16.88
2023-03-21T22:13:27.712Z,20.67
2023-03-21T22:18:29.224Z,17.02
2023-03-21T22:23:30.882Z,21.88
2023-03-21T22:28:34.376Z,17.38
2023-03-21T22:33:35.974Z,19.38
2023-03-21T22:38:38.249Z,22.73
2023-03-21T22:43:39.825Z,20.25
2023-03-21T22:48:41.459Z,18.75
2023-03-21T22:53:42.945Z,18.42
2023-03-21T22:58:44.492Z,21.25
2023-03-21T23:03:46.263Z,24.67
2023-03-21T23:08:47.804Z,19.70
2023-03-21T23:13:58.743Z,21.05
2023-03-21T23:19:08.324Z,16.45
2023-03-21T23:24:10.669Z,18.02
2023-03-21T23:29:12.232Z,11.35
2023-03-21T23:34:14.084Z,19.95
2023-03-21T23:39:18.628Z,16.08
2023-03-21T23:44:20.212Z,18.88
2023-03-21T23:49:21.697Z,14.32
2023-03-21T23:54:23.195Z,10.50
2023-03-21T23:59:24.757Z,9.70
